sensor_id;sensor_type;location;lat;lon;timestamp;P1;durP1;ratioP1;P2;durP2;ratioP2
57567;SDS011;43403;51.948;5.922;2023-10-09T00:01:04;29.40;;;15.20;;
57567;SDS011;43403;51.948;5.922;2023-10-09T00:03:36;32.53;;;14.73;;
57567;SDS011;43403;51.948;5.922;2023-10-09T00:06:04;31.85;;;15.52;;
57567;SDS011;43403;51.948;5.922;2023-10-09T00:08:31;27.15;;;14.10;;
57567;SDS011;43403;51.948;5.922;2023-10-09T00:10:59;26.67;;;13.52;;
57567;SDS011;43403;51.948;5.922;2023-10-09T00:13:47;27.25;;;15.18;;
57567;SDS011;43403;51.948;5.922;2023-10-09T00:16:19;27.63;;;15.13;;
57567;SDS011;43403;51.948;5.922;2023-10-09T00:18:59;24.90;;;14.00;;
57567;SDS011;43403;51.948;5.922;2023-10-09T00:21:45;25.30;;;14.50;;
57567;SDS011;43403;51.948;5.922;2023-10-09T00:24:13;29.70;;;15.07;;
57567;SDS011;43403;51.948;5.922;2023-10-09T00:26:45;27.40;;;15.25;;
57567;SDS011;43403;51.948;5.922;2023-10-09T00:29:12;29.13;;;14.93;;
57567;SDS011;43403;51.948;5.922;2023-10-09T00:31:54;32.30;;;15.52;;
57567;SDS011;43403;51.948;5.922;2023-10-09T00:34:32;29.80;;;15.77;;
57567;SDS011;43403;51.948;5.922;2023-10-09T00:37:06;27.92;;;15.75;;
57567;SDS011;43403;51.948;5.922;2023-10-09T00:39:43;32.53;;;17.38;;
57567;SDS011;43403;51.948;5.922;2023-10-09T00:42:11;30.60;;;16.30;;
57567;SDS011;43403;51.948;5.922;2023-10-09T00:44:54;31.52;;;16.80;;
57567;SDS011;43403;51.948;5.922;2023-10-09T00:47:20;29.83;;;16.58;;
57567;SDS011;43403;51.948;5.922;2023-10-09T00:52:26;28.45;;;16.30;;
57567;SDS011;43403;51.948;5.922;2023-10-09T00:54:59;28.73;;;15.40;;
57567;SDS011;43403;51.948;5.922;2023-10-09T00:57:30;27.10;;;14.88;;
57567;SDS011;43403;51.948;5.922;2023-10-09T01:00:00;27.80;;;14.93;;
57567;SDS011;43403;51.948;5.922;2023-10-09T01:02:27;30.05;;;15.18;;
57567;SDS011;43403;51.948;5.922;2023-10-09T01:05:03;32.15;;;14.85;;
57567;SDS011;43403;51.948;5.922;2023-10-09T01:07:45;28.38;;;15.60;;
57567;SDS011;43403;51.948;5.922;2023-10-09T01:10:16;24.45;;;15.32;;
57567;SDS011;43403;51.948;5.922;2023-10-09T01:13:02;30.15;;;16.17;;
57567;SDS011;43403;51.948;5.922;2023-10-09T01:15:29;35.22;;;17.88;;
57567;SDS011;43403;51.948;5.922;2023-10-09T01:18:02;26.65;;;15.00;;
57567;SDS011;43403;51.948;5.922;2023-10-09T01:23:10;29.35;;;16.80;;
57567;SDS011;43403;51.948;5.922;2023-10-09T01:25:37;34.55;;;19.17;;
57567;SDS011;43403;51.948;5.922;2023-10-09T01:28:11;36.83;;;18.63;;
57567;SDS011;43403;51.948;5.922;2023-10-09T01:30:42;33.72;;;18.65;;
57567;SDS011;43403;51.948;5.922;2023-10-09T01:33:09;31.60;;;16.77;;
57567;SDS011;43403;51.948;5.922;2023-10-09T01:35:49;35.95;;;19.45;;
57567;SDS011;43403;51.948;5.922;2023-10-09T01:38:18;38.78;;;19.67;;
57567;SDS011;43403;51.948;5.922;2023-10-09T01:40:51;38.22;;;20.60;;
57567;SDS011;43403;51.948;5.922;2023-10-09T01:43:18;40.20;;;19.98;;
57567;SDS011;43403;51.948;5.922;2023-10-09T01:45:45;36.55;;;20.38;;
57567;SDS011;43403;51.948;5.922;2023-10-09T01:48:13;36.67;;;19.98;;
57567;SDS011;43403;51.948;5.922;2023-10-09T01:50:41;33.75;;;19.42;;
57567;SDS011;43403;51.948;5.922;2023-10-09T01:53:14;35.78;;;20.55;;
57567;SDS011;43403;51.948;5.922;2023-10-09T01:55:44;32.15;;;19.58;;
57567;SDS011;43403;51.948;5.922;2023-10-09T01:58:12;33.27;;;19.13;;
57567;SDS011;43403;51.948;5.922;2023-10-09T02:00:48;35.40;;;21.27;;
57567;SDS011;43403;51.948;5.922;2023-10-09T02:03:20;39.17;;;20.90;;
57567;SDS011;43403;51.948;5.922;2023-10-09T02:05:51;37.05;;;19.25;;
57567;SDS011;43403;51.948;5.922;2023-10-09T02:08:20;45.65;;;22.83;;
57567;SDS011;43403;51.948;5.922;2023-10-09T02:10:53;40.30;;;22.80;;
57567;SDS011;43403;51.948;5.922;2023-10-09T02:13:22;37.80;;;21.35;;
57567;SDS011;43403;51.948;5.922;2023-10-09T02:15:56;36.08;;;20.38;;
57567;SDS011;43403;51.948;5.922;2023-10-09T02:18:39;38.80;;;21.67;;
57567;SDS011;43403;51.948;5.922;2023-10-09T02:21:07;39.60;;;21.70;;
57567;SDS011;43403;51.948;5.922;2023-10-09T02:23:34;36.05;;;20.98;;
57567;SDS011;43403;51.948;5.922;2023-10-09T02:26:17;37.05;;;21.15;;
57567;SDS011;43403;51.948;5.922;2023-10-09T02:28:55;40.10;;;22.30;;
57567;SDS011;43403;51.948;5.922;2023-10-09T02:31:26;38.83;;;22.42;;
57567;SDS011;43403;51.948;5.922;2023-10-09T02:34:02;34.83;;;21.30;;
57567;SDS011;43403;51.948;5.922;2023-10-09T02:36:31;47.88;;;23.52;;
57567;SDS011;43403;51.948;5.922;2023-10-09T02:39:01;36.33;;;20.98;;
57567;SDS011;43403;51.948;5.922;2023-10-09T02:41:32;37.10;;;22.13;;
57567;SDS011;43403;51.948;5.922;2023-10-09T02:44:00;38.28;;;22.63;;
57567;SDS011;43403;51.948;5.922;2023-10-09T02:46:37;39.97;;;22.75;;
57567;SDS011;43403;51.948;5.922;2023-10-09T02:49:06;37.13;;;20.40;;
57567;SDS011;43403;51.948;5.922;2023-10-09T02:51:33;37.80;;;22.77;;
57567;SDS011;43403;51.948;5.922;2023-10-09T02:54:01;40.83;;;22.70;;
57567;SDS011;43403;51.948;5.922;2023-10-09T02:56:45;38.58;;;22.17;;
57567;SDS011;43403;51.948;5.922;2023-10-09T02:59:14;42.15;;;22.08;;
57567;SDS011;43403;51.948;5.922;2023-10-09T03:01:40;32.78;;;21.85;;
57567;SDS011;43403;51.948;5.922;2023-10-09T03:04:07;35.58;;;20.90;;
57567;SDS011;43403;51.948;5.922;2023-10-09T03:06:37;39.85;;;20.60;;
57567;SDS011;43403;51.948;5.922;2023-10-09T03:09:19;32.92;;;21.08;;
57567;SDS011;43403;51.948;5.922;2023-10-09T03:11:55;34.78;;;20.40;;
57567;SDS011;43403;51.948;5.922;2023-10-09T03:14:30;37.40;;;20.55;;
57567;SDS011;43403;51.948;5.922;2023-10-09T03:19:28;31.17;;;19.83;;
57567;SDS011;43403;51.948;5.922;2023-10-09T03:21:55;35.63;;;21.35;;
57567;SDS011;43403;51.948;5.922;2023-10-09T03:24:25;34.00;;;21.70;;
57567;SDS011;43403;51.948;5.922;2023-10-09T03:31:49;31.30;;;19.63;;
57567;SDS011;43403;51.948;5.922;2023-10-09T03:34:19;30.83;;;18.73;;
57567;SDS011;43403;51.948;5.922;2023-10-09T03:36:46;33.97;;;20.80;;
57567;SDS011;43403;51.948;5.922;2023-10-09T03:39:14;32.67;;;19.60;;
57567;SDS011;43403;51.948;5.922;2023-10-09T03:42:00;32.13;;;20.15;;
57567;SDS011;43403;51.948;5.922;2023-10-09T03:44:31;32.95;;;18.90;;
57567;SDS011;43403;51.948;5.922;2023-10-09T03:47:00;33.33;;;19.17;;
57567;SDS011;43403;51.948;5.922;2023-10-09T03:49:28;32.17;;;19.92;;
57567;SDS011;43403;51.948;5.922;2023-10-09T03:51:55;35.00;;;19.87;;
57567;SDS011;43403;51.948;5.922;2023-10-09T03:54:22;34.03;;;21.10;;
57567;SDS011;43403;51.948;5.922;2023-10-09T03:59:17;27.88;;;19.17;;
57567;SDS011;43403;51.948;5.922;2023-10-09T04:01:46;34.63;;;21.60;;
57567;SDS011;43403;51.948;5.922;2023-10-09T04:04:19;27.60;;;19.38;;
57567;SDS011;43403;51.948;5.922;2023-10-09T04:06:50;32.85;;;18.35;;
57567;SDS011;43403;51.948;5.922;2023-10-09T04:09:20;28.92;;;18.25;;
57567;SDS011;43403;51.948;5.922;2023-10-09T04:11:47;29.20;;;18.25;;
57567;SDS011;43403;51.948;5.922;2023-10-09T04:14:23;32.50;;;18.75;;
57567;SDS011;43403;51.948;5.922;2023-10-09T04:16:59;27.05;;;17.90;;
57567;SDS011;43403;51.948;5.922;2023-10-09T04:19:52;27.75;;;18.63;;
57567;SDS011;43403;51.948;5.922;2023-10-09T04:22:37;30.00;;;17.90;;
57567;SDS011;43403;51.948;5.922;2023-10-09T04:27:52;28.33;;;18.17;;
57567;SDS011;43403;51.948;5.922;2023-10-09T04:30:19;24.67;;;17.08;;
57567;SDS011;43403;51.948;5.922;2023-10-09T04:32:46;29.05;;;17.15;;
57567;SDS011;43403;51.948;5.922;2023-10-09T04:35:13;25.98;;;17.48;;
57567;SDS011;43403;51.948;5.922;2023-10-09T04:37:45;28.63;;;18.65;;
57567;SDS011;43403;51.948;5.922;2023-10-09T04:40:18;24.20;;;16.42;;
57567;SDS011;43403;51.948;5.922;2023-10-09T04:43:03;21.92;;;16.25;;
57567;SDS011;43403;51.948;5.922;2023-10-09T04:45:36;27.42;;;16.45;;
57567;SDS011;43403;51.948;5.922;2023-10-09T04:48:21;26.92;;;18.90;;
57567;SDS011;43403;51.948;5.922;2023-10-09T04:50:59;25.70;;;16.60;;
57567;SDS011;43403;51.948;5.922;2023-10-09T04:53:59;25.15;;;15.65;;
57567;SDS011;43403;51.948;5.922;2023-10-09T04:57:34;26.73;;;16.92;;
57567;SDS011;43403;51.948;5.922;2023-10-09T05:01:05;27.00;;;16.20;;
57567;SDS011;43403;51.948;5.922;2023-10-09T05:04:32;29.17;;;17.63;;
57567;SDS011;43403;51.948;5.922;2023-10-09T05:11:40;25.55;;;15.77;;
57567;SDS011;43403;51.948;5.922;2023-10-09T05:15:15;24.50;;;14.50;;
57567;SDS011;43403;51.948;5.922;2023-10-09T05:18:47;26.40;;;15.77;;
57567;SDS011;43403;51.948;5.922;2023-10-09T05:22:27;22.65;;;14.45;;
57567;SDS011;43403;51.948;5.922;2023-10-09T05:25:52;24.15;;;15.55;;
57567;SDS011;43403;51.948;5.922;2023-10-09T05:29:21;27.73;;;15.38;;
57567;SDS011;43403;51.948;5.922;2023-10-09T05:32:56;27.73;;;17.27;;
57567;SDS011;43403;51.948;5.922;2023-10-09T05:36:27;28.02;;;15.20;;
57567;SDS011;43403;51.948;5.922;2023-10-09T05:40:04;25.17;;;13.88;;
57567;SDS011;43403;51.948;5.922;2023-10-09T05:43:52;21.83;;;15.25;;
57567;SDS011;43403;51.948;5.922;2023-10-09T05:47:36;24.17;;;16.00;;
57567;SDS011;43403;51.948;5.922;2023-10-09T05:51:05;30.33;;;16.70;;
57567;SDS011;43403;51.948;5.922;2023-10-09T05:54:50;31.40;;;16.80;;
57567;SDS011;43403;51.948;5.922;2023-10-09T05:58:33;28.15;;;16.33;;
57567;SDS011;43403;51.948;5.922;2023-10-09T06:02:17;27.13;;;15.05;;
57567;SDS011;43403;51.948;5.922;2023-10-09T06:09:12;25.08;;;15.43;;
57567;SDS011;43403;51.948;5.922;2023-10-09T06:12:46;28.52;;;16.30;;
57567;SDS011;43403;51.948;5.922;2023-10-09T06:16:14;28.05;;;16.50;;
57567;SDS011;43403;51.948;5.922;2023-10-09T06:19:39;26.05;;;15.82;;
57567;SDS011;43403;51.948;5.922;2023-10-09T06:23:34;28.73;;;15.48;;
57567;SDS011;43403;51.948;5.922;2023-10-09T06:27:17;28.73;;;15.40;;
57567;SDS011;43403;51.948;5.922;2023-10-09T06:30:45;27.27;;;15.25;;
57567;SDS011;43403;51.948;5.922;2023-10-09T06:34:26;25.55;;;15.50;;
57567;SDS011;43403;51.948;5.922;2023-10-09T06:37:58;30.75;;;15.80;;
57567;SDS011;43403;51.948;5.922;2023-10-09T06:41:43;28.75;;;16.67;;
57567;SDS011;43403;51.948;5.922;2023-10-09T06:45:09;24.88;;;14.90;;
57567;SDS011;43403;51.948;5.922;2023-10-09T06:48:54;28.17;;;15.52;;
57567;SDS011;43403;51.948;5.922;2023-10-09T06:52:54;29.42;;;16.80;;
57567;SDS011;43403;51.948;5.922;2023-10-09T07:00:08;29.92;;;15.93;;
57567;SDS011;43403;51.948;5.922;2023-10-09T07:03:51;25.55;;;16.60;;
57567;SDS011;43403;51.948;5.922;2023-10-09T07:07:21;28.55;;;16.52;;
57567;SDS011;43403;51.948;5.922;2023-10-09T07:11:01;27.05;;;16.23;;
57567;SDS011;43403;51.948;5.922;2023-10-09T07:14:29;26.08;;;17.23;;
57567;SDS011;43403;51.948;5.922;2023-10-09T07:18:27;23.48;;;14.90;;
57567;SDS011;43403;51.948;5.922;2023-10-09T07:22:08;27.33;;;16.90;;
57567;SDS011;43403;51.948;5.922;2023-10-09T07:25:40;26.83;;;16.65;;
57567;SDS011;43403;51.948;5.922;2023-10-09T07:29:20;27.58;;;16.15;;
57567;SDS011;43403;51.948;5.922;2023-10-09T07:36:23;30.05;;;17.17;;
57567;SDS011;43403;51.948;5.922;2023-10-09T07:39:50;32.88;;;17.90;;
57567;SDS011;43403;51.948;5.922;2023-10-09T07:43:46;27.20;;;16.70;;
57567;SDS011;43403;51.948;5.922;2023-10-09T07:47:21;29.17;;;16.30;;
57567;SDS011;43403;51.948;5.922;2023-10-09T07:50:52;29.02;;;17.23;;
57567;SDS011;43403;51.948;5.922;2023-10-09T07:54:19;29.15;;;17.98;;
57567;SDS011;43403;51.948;5.922;2023-10-09T07:57:55;24.60;;;16.17;;
57567;SDS011;43403;51.948;5.922;2023-10-09T08:01:26;27.27;;;16.40;;
57567;SDS011;43403;51.948;5.922;2023-10-09T08:05:01;26.45;;;15.77;;
57567;SDS011;43403;51.948;5.922;2023-10-09T08:08:45;25.33;;;14.63;;
57567;SDS011;43403;51.948;5.922;2023-10-09T08:12:17;28.95;;;16.85;;
57567;SDS011;43403;51.948;5.922;2023-10-09T08:16:00;28.43;;;15.87;;
57567;SDS011;43403;51.948;5.922;2023-10-09T08:19:42;22.17;;;13.80;;
57567;SDS011;43403;51.948;5.922;2023-10-09T08:23:28;25.52;;;15.27;;
57567;SDS011;43403;51.948;5.922;2023-10-09T08:27:08;27.63;;;14.43;;
57567;SDS011;43403;51.948;5.922;2023-10-09T08:30:49;26.95;;;16.50;;
57567;SDS011;43403;51.948;5.922;2023-10-09T08:34:23;27.70;;;15.38;;
57567;SDS011;43403;51.948;5.922;2023-10-09T08:37:59;25.33;;;16.10;;
57567;SDS011;43403;51.948;5.922;2023-10-09T08:41:25;21.92;;;15.32;;
57567;SDS011;43403;51.948;5.922;2023-10-09T08:44:51;28.02;;;14.50;;
57567;SDS011;43403;51.948;5.922;2023-10-09T08:48:27;26.80;;;15.63;;
57567;SDS011;43403;51.948;5.922;2023-10-09T08:51:54;28.88;;;14.82;;
57567;SDS011;43403;51.948;5.922;2023-10-09T08:55:21;29.02;;;16.30;;
57567;SDS011;43403;51.948;5.922;2023-10-09T08:58:59;28.38;;;13.85;;
57567;SDS011;43403;51.948;5.922;2023-10-09T09:02:24;21.98;;;15.10;;
57567;SDS011;43403;51.948;5.922;2023-10-09T09:05:57;22.95;;;13.88;;
57567;SDS011;43403;51.948;5.922;2023-10-09T09:09:22;25.48;;;14.52;;
57567;SDS011;43403;51.948;5.922;2023-10-09T09:13:04;23.30;;;13.98;;
57567;SDS011;43403;51.948;5.922;2023-10-09T09:16:34;25.30;;;15.15;;
57567;SDS011;43403;51.948;5.922;2023-10-09T09:20:16;24.10;;;15.10;;
57567;SDS011;43403;51.948;5.922;2023-10-09T09:23:58;25.75;;;13.77;;
57567;SDS011;43403;51.948;5.922;2023-10-09T09:27:45;28.65;;;13.95;;
57567;SDS011;43403;51.948;5.922;2023-10-09T09:31:21;25.73;;;14.15;;
57567;SDS011;43403;51.948;5.922;2023-10-09T09:34:56;23.30;;;13.90;;
57567;SDS011;43403;51.948;5.922;2023-10-09T09:38:22;23.42;;;14.68;;
57567;SDS011;43403;51.948;5.922;2023-10-09T09:41:59;26.80;;;13.75;;
57567;SDS011;43403;51.948;5.922;2023-10-09T09:45:37;26.75;;;14.88;;
57567;SDS011;43403;51.948;5.922;2023-10-09T09:49:06;23.33;;;14.00;;
57567;SDS011;43403;51.948;5.922;2023-10-09T09:52:39;23.60;;;14.63;;
57567;SDS011;43403;51.948;5.922;2023-10-09T09:56:04;26.50;;;14.10;;
57567;SDS011;43403;51.948;5.922;2023-10-09T09:59:37;25.27;;;13.88;;
57567;SDS011;43403;51.948;5.922;2023-10-09T10:03:14;24.35;;;13.75;;
57567;SDS011;43403;51.948;5.922;2023-10-09T10:06:46;24.75;;;12.82;;
57567;SDS011;43403;51.948;5.922;2023-10-09T10:14:14;24.10;;;13.80;;
57567;SDS011;43403;51.948;5.922;2023-10-09T10:18:15;23.63;;;12.23;;
57567;SDS011;43403;51.948;5.922;2023-10-09T10:21:47;21.83;;;11.43;;
57567;SDS011;43403;51.948;5.922;2023-10-09T10:29:15;20.13;;;10.75;;
57567;SDS011;43403;51.948;5.922;2023-10-09T10:33:02;17.35;;;10.13;;
57567;SDS011;43403;51.948;5.922;2023-10-09T10:36:33;17.85;;;9.88;;
57567;SDS011;43403;51.948;5.922;2023-10-09T10:40:23;20.38;;;9.85;;
57567;SDS011;43403;51.948;5.922;2023-10-09T10:43:49;18.15;;;10.43;;
57567;SDS011;43403;51.948;5.922;2023-10-09T10:48:51;17.55;;;9.00;;
57567;SDS011;43403;51.948;5.922;2023-10-09T10:51:27;19.38;;;9.95;;
57567;SDS011;43403;51.948;5.922;2023-10-09T10:54:08;22.00;;;10.30;;
57567;SDS011;43403;51.948;5.922;2023-10-09T10:59:24;22.15;;;9.23;;
57567;SDS011;43403;51.948;5.922;2023-10-09T11:01:55;19.52;;;9.10;;
57567;SDS011;43403;51.948;5.922;2023-10-09T11:04:40;13.60;;;7.78;;
57567;SDS011;43403;51.948;5.922;2023-10-09T11:07:10;14.20;;;8.73;;
57567;SDS011;43403;51.948;5.922;2023-10-09T11:09:47;17.63;;;8.50;;
57567;SDS011;43403;51.948;5.922;2023-10-09T11:15:08;14.13;;;7.63;;
57567;SDS011;43403;51.948;5.922;2023-10-09T11:17:59;17.90;;;7.53;;
57567;SDS011;43403;51.948;5.922;2023-10-09T11:20:32;15.60;;;8.10;;
57567;SDS011;43403;51.948;5.922;2023-10-09T11:23:00;18.17;;;7.95;;
57567;SDS011;43403;51.948;5.922;2023-10-09T11:25:39;18.00;;;7.97;;
57567;SDS011;43403;51.948;5.922;2023-10-09T11:28:19;14.02;;;7.30;;
57567;SDS011;43403;51.948;5.922;2023-10-09T11:31:14;14.73;;;7.40;;
57567;SDS011;43403;51.948;5.922;2023-10-09T11:33:48;15.23;;;8.10;;
57567;SDS011;43403;51.948;5.922;2023-10-09T11:36:15;17.05;;;7.90;;
57567;SDS011;43403;51.948;5.922;2023-10-09T11:38:43;15.23;;;7.78;;
57567;SDS011;43403;51.948;5.922;2023-10-09T11:41:15;15.90;;;7.97;;
57567;SDS011;43403;51.948;5.922;2023-10-09T11:43:46;13.45;;;7.30;;
57567;SDS011;43403;51.948;5.922;2023-10-09T11:46:19;14.20;;;7.20;;
57567;SDS011;43403;51.948;5.922;2023-10-09T11:49:08;18.45;;;8.00;;
57567;SDS011;43403;51.948;5.922;2023-10-09T11:51:47;14.13;;;7.47;;
57567;SDS011;43403;51.948;5.922;2023-10-09T11:54:32;17.92;;;7.80;;
57567;SDS011;43403;51.948;5.922;2023-10-09T11:56:59;12.60;;;7.03;;
57567;SDS011;43403;51.948;5.922;2023-10-09T11:59:29;15.40;;;7.35;;
57567;SDS011;43403;51.948;5.922;2023-10-09T12:02:00;12.68;;;7.90;;
57567;SDS011;43403;51.948;5.922;2023-10-09T12:04:27;12.40;;;6.57;;
57567;SDS011;43403;51.948;5.922;2023-10-09T12:06:56;14.30;;;6.55;;
57567;SDS011;43403;51.948;5.922;2023-10-09T12:09:39;11.07;;;6.57;;
57567;SDS011;43403;51.948;5.922;2023-10-09T12:12:06;18.40;;;6.95;;
57567;SDS011;43403;51.948;5.922;2023-10-09T12:14:33;16.92;;;7.45;;
57567;SDS011;43403;51.948;5.922;2023-10-09T12:17:01;16.35;;;6.40;;
57567;SDS011;43403;51.948;5.922;2023-10-09T12:19:35;17.00;;;7.28;;
57567;SDS011;43403;51.948;5.922;2023-10-09T12:22:02;14.32;;;6.63;;
57567;SDS011;43403;51.948;5.922;2023-10-09T12:24:30;15.15;;;6.43;;
57567;SDS011;43403;51.948;5.922;2023-10-09T12:26:57;14.15;;;6.85;;
57567;SDS011;43403;51.948;5.922;2023-10-09T12:29:23;14.43;;;6.80;;
57567;SDS011;43403;51.948;5.922;2023-10-09T12:31:50;13.18;;;6.38;;
57567;SDS011;43403;51.948;5.922;2023-10-09T12:34:25;14.50;;;5.90;;
57567;SDS011;43403;51.948;5.922;2023-10-09T12:39:19;16.83;;;6.50;;
57567;SDS011;43403;51.948;5.922;2023-10-09T12:41:46;12.68;;;5.53;;
57567;SDS011;43403;51.948;5.922;2023-10-09T12:44:13;10.48;;;5.45;;
57567;SDS011;43403;51.948;5.922;2023-10-09T12:46:46;11.50;;;5.15;;
57567;SDS011;43403;51.948;5.922;2023-10-09T12:49:22;11.05;;;5.18;;
57567;SDS011;43403;51.948;5.922;2023-10-09T12:51:52;11.95;;;5.65;;
57567;SDS011;43403;51.948;5.922;2023-10-09T12:54:19;14.65;;;5.57;;
57567;SDS011;43403;51.948;5.922;2023-10-09T12:56:54;10.98;;;5.50;;
57567;SDS011;43403;51.948;5.922;2023-10-09T12:59:21;9.38;;;4.68;;
57567;SDS011;43403;51.948;5.922;2023-10-09T13:04:23;18.65;;;5.13;;
57567;SDS011;43403;51.948;5.922;2023-10-09T13:06:50;11.80;;;5.68;;
57567;SDS011;43403;51.948;5.922;2023-10-09T13:09:20;12.10;;;5.20;;
57567;SDS011;43403;51.948;5.922;2023-10-09T13:12:09;15.80;;;5.93;;
57567;SDS011;43403;51.948;5.922;2023-10-09T13:14:44;12.07;;;5.20;;
57567;SDS011;43403;51.948;5.922;2023-10-09T13:17:13;11.45;;;5.63;;
57567;SDS011;43403;51.948;5.922;2023-10-09T13:19:40;19.10;;;5.63;;
57567;SDS011;43403;51.948;5.922;2023-10-09T13:22:07;10.50;;;5.18;;
57567;SDS011;43403;51.948;5.922;2023-10-09T13:24:40;15.80;;;6.00;;
57567;SDS011;43403;51.948;5.922;2023-10-09T13:27:06;12.80;;;5.43;;
57567;SDS011;43403;51.948;5.922;2023-10-09T13:29:36;13.75;;;5.18;;
57567;SDS011;43403;51.948;5.922;2023-10-09T13:32:06;13.70;;;5.65;;
57567;SDS011;43403;51.948;5.922;2023-10-09T13:34:40;15.07;;;5.20;;
57567;SDS011;43403;51.948;5.922;2023-10-09T13:37:11;12.25;;;5.18;;
57567;SDS011;43403;51.948;5.922;2023-10-09T13:39:40;13.45;;;6.30;;
57567;SDS011;43403;51.948;5.922;2023-10-09T13:42:19;15.95;;;5.45;;
57567;SDS011;43403;51.948;5.922;2023-10-09T13:44:45;15.32;;;5.53;;
57567;SDS011;43403;51.948;5.922;2023-10-09T13:47:15;8.55;;;4.70;;
57567;SDS011;43403;51.948;5.922;2023-10-09T13:49:55;11.20;;;4.70;;
57567;SDS011;43403;51.948;5.922;2023-10-09T13:52:23;14.57;;;5.50;;
57567;SDS011;43403;51.948;5.922;2023-10-09T13:54:50;12.10;;;5.32;;
57567;SDS011;43403;51.948;5.922;2023-10-09T13:57:16;16.33;;;5.68;;
57567;SDS011;43403;51.948;5.922;2023-10-09T13:59:43;12.93;;;5.75;;
57567;SDS011;43403;51.948;5.922;2023-10-09T14:02:15;18.33;;;5.88;;
57567;SDS011;43403;51.948;5.922;2023-10-09T14:04:47;10.40;;;5.05;;
57567;SDS011;43403;51.948;5.922;2023-10-09T14:07:15;11.45;;;5.50;;
57567;SDS011;43403;51.948;5.922;2023-10-09T14:09:47;11.75;;;5.40;;
57567;SDS011;43403;51.948;5.922;2023-10-09T14:12:34;14.68;;;5.07;;
57567;SDS011;43403;51.948;5.922;2023-10-09T14:15:00;12.57;;;5.30;;
57567;SDS011;43403;51.948;5.922;2023-10-09T14:17:30;11.38;;;5.63;;
57567;SDS011;43403;51.948;5.922;2023-10-09T14:19:56;12.35;;;4.88;;
57567;SDS011;43403;51.948;5.922;2023-10-09T14:22:42;14.75;;;6.32;;
57567;SDS011;43403;51.948;5.922;2023-10-09T14:25:09;15.75;;;5.78;;
57567;SDS011;43403;51.948;5.922;2023-10-09T14:27:41;14.02;;;5.60;;
57567;SDS011;43403;51.948;5.922;2023-10-09T14:30:07;11.93;;;5.38;;
57567;SDS011;43403;51.948;5.922;2023-10-09T14:32:39;17.13;;;5.25;;
57567;SDS011;43403;51.948;5.922;2023-10-09T14:35:16;16.30;;;5.33;;
57567;SDS011;43403;51.948;5.922;2023-10-09T14:37:42;10.75;;;4.88;;
57567;SDS011;43403;51.948;5.922;2023-10-09T14:40:09;14.27;;;5.38;;
57567;SDS011;43403;51.948;5.922;2023-10-09T14:42:39;9.65;;;4.88;;
57567;SDS011;43403;51.948;5.922;2023-10-09T14:45:10;12.60;;;4.82;;
57567;SDS011;43403;51.948;5.922;2023-10-09T14:47:42;13.73;;;5.05;;
57567;SDS011;43403;51.948;5.922;2023-10-09T14:50:08;12.77;;;4.82;;
57567;SDS011;43403;51.948;5.922;2023-10-09T14:52:36;12.95;;;5.47;;
57567;SDS011;43403;51.948;5.922;2023-10-09T14:55:05;18.02;;;5.15;;
57567;SDS011;43403;51.948;5.922;2023-10-09T14:57:32;16.07;;;6.03;;
57567;SDS011;43403;51.948;5.922;2023-10-09T15:00:01;20.05;;;6.45;;
57567;SDS011;43403;51.948;5.922;2023-10-09T15:02:33;29.63;;;7.05;;
57567;SDS011;43403;51.948;5.922;2023-10-09T15:05:00;20.30;;;6.18;;
57567;SDS011;43403;51.948;5.922;2023-10-09T15:07:27;19.52;;;6.32;;
57567;SDS011;43403;51.948;5.922;2023-10-09T15:10:06;11.13;;;5.13;;
57567;SDS011;43403;51.948;5.922;2023-10-09T15:12:35;15.02;;;5.28;;
57567;SDS011;43403;51.948;5.922;2023-10-09T15:15:06;12.77;;;5.55;;
57567;SDS011;43403;51.948;5.922;2023-10-09T15:17:43;11.82;;;5.32;;
57567;SDS011;43403;51.948;5.922;2023-10-09T15:20:12;16.63;;;5.50;;
57567;SDS011;43403;51.948;5.922;2023-10-09T15:22:42;13.40;;;5.00;;
57567;SDS011;43403;51.948;5.922;2023-10-09T15:25:08;13.95;;;4.90;;
57567;SDS011;43403;51.948;5.922;2023-10-09T15:27:35;16.50;;;5.50;;
57567;SDS011;43403;51.948;5.922;2023-10-09T15:30:06;11.88;;;5.40;;
57567;SDS011;43403;51.948;5.922;2023-10-09T15:32:34;13.13;;;5.13;;
57567;SDS011;43403;51.948;5.922;2023-10-09T15:35:01;14.70;;;5.97;;
57567;SDS011;43403;51.948;5.922;2023-10-09T15:37:29;14.40;;;6.90;;
57567;SDS011;43403;51.948;5.922;2023-10-09T15:39:55;15.60;;;5.72;;
57567;SDS011;43403;51.948;5.922;2023-10-09T15:42:22;13.90;;;5.57;;
57567;SDS011;43403;51.948;5.922;2023-10-09T15:44:51;13.52;;;5.53;;
57567;SDS011;43403;51.948;5.922;2023-10-09T15:47:21;12.55;;;5.43;;
57567;SDS011;43403;51.948;5.922;2023-10-09T15:49:48;11.27;;;5.45;;
57567;SDS011;43403;51.948;5.922;2023-10-09T15:52:15;16.57;;;5.13;;
57567;SDS011;43403;51.948;5.922;2023-10-09T15:54:42;16.00;;;5.50;;
57567;SDS011;43403;51.948;5.922;2023-10-09T15:57:10;16.73;;;6.18;;
57567;SDS011;43403;51.948;5.922;2023-10-09T15:59:39;16.30;;;5.57;;
57567;SDS011;43403;51.948;5.922;2023-10-09T16:02:06;11.50;;;5.60;;
57567;SDS011;43403;51.948;5.922;2023-10-09T16:04:32;12.75;;;5.13;;
57567;SDS011;43403;51.948;5.922;2023-10-09T16:07:00;15.60;;;5.95;;
57567;SDS011;43403;51.948;5.922;2023-10-09T16:09:27;12.20;;;5.70;;
57567;SDS011;43403;51.948;5.922;2023-10-09T16:11:55;15.32;;;6.18;;
57567;SDS011;43403;51.948;5.922;2023-10-09T16:14:22;11.90;;;5.47;;
57567;SDS011;43403;51.948;5.922;2023-10-09T16:16:49;15.68;;;5.60;;
57567;SDS011;43403;51.948;5.922;2023-10-09T16:19:16;13.32;;;5.50;;
57567;SDS011;43403;51.948;5.922;2023-10-09T16:21:43;13.32;;;5.50;;
57567;SDS011;43403;51.948;5.922;2023-10-09T16:24:10;12.05;;;5.25;;
57567;SDS011;43403;51.948;5.922;2023-10-09T16:26:37;12.68;;;5.32;;
57567;SDS011;43403;51.948;5.922;2023-10-09T16:29:09;15.50;;;5.57;;
57567;SDS011;43403;51.948;5.922;2023-10-09T16:31:35;12.02;;;4.85;;
57567;SDS011;43403;51.948;5.922;2023-10-09T16:34:06;15.45;;;5.82;;
57567;SDS011;43403;51.948;5.922;2023-10-09T16:36:35;12.32;;;5.50;;
57567;SDS011;43403;51.948;5.922;2023-10-09T16:39:05;14.25;;;5.80;;
57567;SDS011;43403;51.948;5.922;2023-10-09T16:41:45;10.57;;;5.18;;
57567;SDS011;43403;51.948;5.922;2023-10-09T16:44:11;18.98;;;5.80;;
57567;SDS011;43403;51.948;5.922;2023-10-09T16:46:45;14.02;;;5.30;;
57567;SDS011;43403;51.948;5.922;2023-10-09T16:49:12;14.23;;;5.47;;
57567;SDS011;43403;51.948;5.922;2023-10-09T16:51:40;16.20;;;5.95;;
57567;SDS011;43403;51.948;5.922;2023-10-09T16:54:09;11.27;;;5.80;;
57567;SDS011;43403;51.948;5.922;2023-10-09T16:56:41;13.98;;;6.45;;
57567;SDS011;43403;51.948;5.922;2023-10-09T16:59:11;12.45;;;5.88;;
57567;SDS011;43403;51.948;5.922;2023-10-09T17:01:41;13.52;;;5.68;;
57567;SDS011;43403;51.948;5.922;2023-10-09T17:04:08;17.13;;;5.78;;
57567;SDS011;43403;51.948;5.922;2023-10-09T17:06:44;13.57;;;5.38;;
57567;SDS011;43403;51.948;5.922;2023-10-09T17:09:11;15.32;;;6.25;;
57567;SDS011;43403;51.948;5.922;2023-10-09T17:11:40;16.58;;;5.95;;
57567;SDS011;43403;51.948;5.922;2023-10-09T17:14:07;14.30;;;5.38;;
57567;SDS011;43403;51.948;5.922;2023-10-09T17:16:39;13.43;;;6.55;;
57567;SDS011;43403;51.948;5.922;2023-10-09T17:19:11;15.27;;;7.30;;
57567;SDS011;43403;51.948;5.922;2023-10-09T17:21:40;13.88;;;7.20;;
57567;SDS011;43403;51.948;5.922;2023-10-09T17:24:07;12.57;;;6.78;;